Trout Creek, Montana
Current Conditions -  °F | °C
As of 12:53 PM on Monday 24 Nov 2014 (Local Time) from KMLP Reporting Station
Overcast Overcast  
Wind Chill: 19°   Ceiling: 400
Heat Index: 25°   Visibility: 10mi
Dew Point: 22°   Wind: 5mph
Humidity: 88%   Direction: 220°SW
Pressure: 30.22"   Gusts: NA
Location:  47.83°N, 115.61°W
Report Text: KMLP 241953Z AUTO 22004KT 10SM OVC004 M04/M06 A3022 RMK AO2 CIG 002V007 SLP276 T10391056
Loading
Personal Weather Stations






























Interactive Weather Map New forecast layout! Learn more

10-Day Weather Forecast

Advertisements
Track Severe Weather on mobile